createdAt,value
2023-05-10T00:02:17.383Z,99.90
2023-05-10T00:04:45.331Z,99.90
2023-05-10T00:07:14.534Z,99.90
2023-05-10T00:09:42.374Z,99.90
2023-05-10T00:12:10.232Z,99.90
2023-05-10T00:14:38.104Z,99.90
2023-05-10T00:17:06.053Z,99.90
2023-05-10T00:19:33.897Z,99.90
2023-05-10T00:22:02.499Z,99.90
2023-05-10T00:24:31.740Z,99.90
2023-05-10T00:26:59.579Z,99.90
2023-05-10T00:29:28.962Z,99.90
2023-05-10T00:31:57.186Z,99.90
2023-05-10T00:34:25.558Z,99.90
2023-05-10T00:36:53.408Z,99.90
2023-05-10T00:39:21.248Z,99.90
2023-05-10T00:41:50.450Z,99.90
2023-05-10T00:44:19.343Z,99.90
2023-05-10T00:46:47.479Z,99.90
2023-05-10T00:49:15.513Z,99.90
2023-05-10T00:51:43.844Z,99.90
2023-05-10T00:54:13.260Z,99.90
2023-05-10T00:56:42.190Z,99.90
2023-05-10T00:59:11.945Z,99.90
2023-05-10T01:01:40.149Z,99.90
2023-05-10T01:04:08.269Z,99.90
2023-05-10T01:06:36.117Z,99.90
2023-05-10T01:09:03.956Z,99.90
2023-05-10T01:11:32.236Z,99.90
2023-05-10T01:14:00.414Z,99.90
2023-05-10T01:16:31.736Z,99.90
2023-05-10T01:18:59.815Z,99.90
2023-05-10T01:21:35.060Z,99.90
2023-05-10T01:24:27.391Z,99.90
2023-05-10T01:27:12.358Z,99.90
2023-05-10T01:30:21.693Z,99.90
2023-05-10T01:32:57.979Z,99.90
2023-05-10T01:35:36.256Z,99.90
2023-05-10T01:38:13.928Z,99.90
2023-05-10T01:40:48.265Z,99.90
2023-05-10T01:43:23.407Z,99.90
2023-05-10T01:46:01.535Z,99.90
2023-05-10T01:48:32.371Z,99.90
2023-05-10T01:51:01.062Z,99.90
2023-05-10T01:53:29.999Z,99.90
2023-05-10T01:55:59.239Z,99.90
2023-05-10T01:58:31.289Z,99.90
2023-05-10T02:01:01.731Z,99.90
2023-05-10T02:03:33.315Z,99.90
2023-05-10T02:06:01.652Z,99.90
2023-05-10T02:08:29.958Z,99.90
2023-05-10T02:10:59.592Z,99.90
2023-05-10T02:13:29.317Z,99.90
2023-05-10T02:15:58.920Z,99.90
2023-05-10T02:18:29.108Z,99.90
2023-05-10T02:20:59.894Z,99.90
2023-05-10T02:23:28.483Z,99.90
2023-05-10T02:25:58.230Z,99.90
2023-05-10T02:28:28.017Z,99.90
2023-05-10T02:30:57.187Z,99.90
2023-05-10T02:33:25.891Z,99.90
2023-05-10T02:35:54.697Z,99.90
2023-05-10T02:38:26.146Z,99.90
2023-05-10T02:40:55.707Z,99.90
2023-05-10T02:43:26.360Z,99.90
2023-05-10T02:45:54.475Z,99.90
2023-05-10T02:48:22.439Z,99.90
2023-05-10T02:50:54.277Z,99.90
2023-05-10T02:53:32.204Z,99.90
2023-05-10T02:56:04.945Z,99.90
2023-05-10T02:58:32.804Z,99.90
2023-05-10T03:01:01.433Z,99.90
2023-05-10T03:03:29.292Z,99.90
2023-05-10T03:05:57.623Z,99.90
2023-05-10T03:08:30.171Z,99.90
2023-05-10T03:11:14.016Z,99.90
2023-05-10T03:13:50.808Z,99.90
2023-05-10T03:16:26.300Z,99.90
2023-05-10T03:19:03.549Z,99.90
2023-05-10T03:21:33.487Z,99.90
2023-05-10T03:24:09.408Z,99.90
2023-05-10T03:26:38.903Z,99.90
2023-05-10T03:29:08.603Z,99.90
2023-05-10T03:31:36.600Z,99.90
2023-05-10T03:34:04.455Z,99.90
2023-05-10T03:36:32.374Z,99.90
2023-05-10T03:39:00.228Z,99.90
2023-05-10T03:41:29.552Z,99.90
2023-05-10T03:43:57.443Z,99.90
2023-05-10T03:46:25.295Z,99.90
2023-05-10T03:48:53.117Z,99.90
2023-05-10T03:51:21.318Z,99.90
2023-05-10T03:53:49.161Z,99.90
2023-05-10T03:56:16.970Z,99.90
2023-05-10T03:58:46.138Z,99.90
2023-05-10T04:01:14.068Z,99.90
2023-05-10T04:03:42.059Z,99.90
2023-05-10T04:06:12.623Z,99.90
2023-05-10T04:08:40.500Z,99.90
2023-05-10T04:11:09.413Z,99.90
2023-05-10T04:13:37.564Z,99.90
2023-05-10T04:16:07.410Z,99.90
2023-05-10T04:18:35.511Z,99.90
2023-05-10T04:21:03.612Z,99.90
2023-05-10T04:23:31.432Z,99.90
2023-05-10T04:26:02.837Z,99.90
2023-05-10T04:28:30.645Z,99.90
2023-05-10T04:31:03.620Z,99.90
2023-05-10T04:33:33.438Z,99.90
2023-05-10T04:36:01.662Z,99.90
2023-05-10T04:38:29.664Z,99.90
2023-05-10T04:41:06.095Z,99.90
2023-05-10T04:43:33.979Z,99.90
2023-05-10T04:46:01.943Z,99.90
2023-05-10T04:48:29.909Z,99.90
2023-05-10T04:50:59.117Z,99.90
2023-05-10T04:53:27.090Z,99.90
2023-05-10T04:55:54.926Z,99.90
2023-05-10T04:58:23.034Z,99.90
2023-05-10T05:00:51.220Z,99.90
2023-05-10T05:03:19.160Z,99.90
2023-05-10T05:05:47.105Z,99.90
2023-05-10T05:08:16.599Z,99.90
2023-05-10T05:10:44.475Z,99.90
2023-05-10T05:13:14.381Z,99.90
2023-05-10T05:15:42.241Z,99.90
2023-05-10T05:18:10.161Z,99.90
2023-05-10T05:20:38.001Z,99.90
2023-05-10T05:23:05.846Z,99.90
2023-05-10T05:25:35.040Z,99.90
2023-05-10T05:28:02.899Z,99.90
2023-05-10T05:30:30.747Z,99.90
2023-05-10T05:32:58.649Z,99.90
2023-05-10T05:35:27.031Z,99.90
2023-05-10T05:37:54.848Z,99.90
2023-05-10T05:40:22.673Z,99.90
2023-05-10T05:42:51.874Z,99.90
2023-05-10T05:45:20.117Z,99.90
2023-05-10T05:47:48.228Z,99.90
2023-05-10T05:50:16.138Z,99.90
2023-05-10T05:52:43.982Z,99.90
2023-05-10T05:55:12.776Z,99.90
2023-05-10T05:57:40.634Z,99.90
2023-05-10T06:00:11.214Z,99.90
2023-05-10T06:02:39.157Z,99.90
2023-05-10T06:05:08.607Z,99.90
2023-05-10T06:07:36.473Z,99.90
2023-05-10T06:10:04.746Z,99.90
2023-05-10T06:12:32.576Z,99.90
2023-05-10T06:15:00.427Z,99.90
2023-05-10T06:17:29.687Z,99.90
2023-05-10T06:19:57.681Z,99.90
2023-05-10T06:22:25.562Z,99.90
2023-05-10T06:24:53.391Z,99.90
2023-05-10T06:27:21.224Z,99.90
2023-05-10T06:29:52.129Z,99.90
2023-05-10T06:32:22.186Z,99.90
2023-05-10T06:34:51.357Z,99.90
2023-05-10T06:37:19.263Z,99.90
2023-05-10T06:39:47.163Z,99.90
2023-05-10T06:42:14.994Z,99.90
2023-05-10T06:44:42.817Z,99.90
2023-05-10T06:47:10.716Z,99.90
2023-05-10T06:49:38.819Z,99.90
2023-05-10T06:52:08.102Z,99.90
2023-05-10T06:54:35.919Z,99.90
2023-05-10T06:57:10.759Z,99.90
2023-05-10T06:59:44.186Z,99.90
2023-05-10T07:02:12.262Z,99.90
2023-05-10T07:04:40.401Z,99.90
2023-05-10T07:07:10.260Z,99.90
2023-05-10T07:09:38.077Z,99.90
2023-05-10T07:12:07.242Z,99.90
2023-05-10T07:14:35.904Z,99.90
2023-05-10T07:17:03.808Z,99.90
2023-05-10T07:19:33.455Z,99.90
2023-05-10T07:22:01.280Z,99.90
2023-05-10T07:24:30.817Z,99.90
2023-05-10T07:26:58.690Z,99.90
2023-05-10T07:29:26.830Z,99.90
2023-05-10T07:31:56.491Z,99.90
2023-05-10T07:34:25.969Z,99.90
2023-05-10T07:36:53.888Z,99.90
2023-05-10T07:39:27.853Z,99.90
2023-05-10T07:41:57.919Z,99.90
2023-05-10T07:44:25.804Z,99.90
2023-05-10T07:46:53.746Z,99.90
2023-05-10T07:49:21.611Z,99.90
2023-05-10T07:51:49.689Z,99.90
2023-05-10T07:54:18.147Z,99.90
2023-05-10T07:56:48.034Z,99.90
2023-05-10T07:59:19.503Z,99.90
2023-05-10T08:01:47.592Z,99.90
2023-05-10T08:04:15.599Z,99.90
2023-05-10T08:06:43.442Z,99.90
2023-05-10T08:09:11.825Z,99.90
2023-05-10T08:11:39.692Z,99.90
2023-05-10T08:14:07.525Z,99.90
2023-05-10T08:16:36.735Z,99.90
2023-05-10T08:19:04.650Z,99.90
2023-05-10T08:21:32.606Z,99.90
2023-05-10T08:24:00.433Z,99.90
2023-05-10T08:26:28.375Z,99.90
2023-05-10T08:28:56.186Z,75.40
2023-05-10T08:31:24.057Z,99.90
2023-05-10T08:33:53.615Z,28.50
2023-05-10T08:36:22.778Z,29.10
2023-05-10T08:38:52.565Z,1.00
2023-05-10T08:41:21.979Z,1.00
2023-05-10T08:43:50.515Z,1.00
2023-05-10T08:46:19.971Z,1.00
2023-05-10T08:48:49.141Z,1.00
2023-05-10T08:51:20.913Z,1.00
2023-05-10T08:53:49.064Z,1.00
2023-05-10T08:56:18.774Z,1.00
2023-05-10T08:58:46.908Z,1.00
2023-05-10T09:01:15.721Z,1.00
2023-05-10T09:03:43.806Z,1.00
2023-05-10T09:06:14.040Z,99.90
2023-05-10T09:08:43.931Z,1.00
2023-05-10T09:11:12.538Z,1.00
2023-05-10T09:13:40.795Z,99.90
2023-05-10T09:16:20.450Z,1.00
2023-05-10T09:18:50.321Z,99.90
2023-05-10T09:21:18.325Z,1.00
2023-05-10T09:23:48.943Z,1.00
2023-05-10T09:26:17.137Z,99.90
2023-05-10T09:28:55.618Z,99.90
2023-05-10T09:31:24.674Z,99.90
2023-05-10T09:33:53.342Z,99.90
2023-05-10T09:36:21.226Z,1.00
2023-05-10T09:38:52.722Z,1.00
2023-05-10T09:41:22.408Z,1.00
2023-05-10T09:43:50.587Z,99.90
2023-05-10T09:46:18.939Z,1.00
2023-05-10T09:48:48.524Z,99.90
2023-05-10T09:51:22.774Z,1.00
2023-05-10T09:54:11.452Z,99.90
2023-05-10T09:56:41.203Z,1.00
2023-05-10T09:59:12.855Z,99.90
2023-05-10T10:01:43.028Z,99.90
2023-05-10T10:04:11.969Z,99.90
2023-05-10T10:06:40.385Z,1.00
2023-05-10T10:09:10.594Z,1.00
2023-05-10T10:11:40.712Z,1.00
2023-05-10T10:14:08.630Z,99.90
2023-05-10T10:16:37.595Z,1.00
2023-05-10T10:19:10.009Z,1.00
2023-05-10T10:21:37.920Z,1.00
2023-05-10T10:24:06.696Z,1.00
2023-05-10T10:26:39.279Z,1.00
2023-05-10T10:29:18.085Z,1.00
2023-05-10T10:31:51.665Z,99.90
2023-05-10T10:34:27.830Z,99.90
2023-05-10T10:36:57.211Z,99.90
2023-05-10T10:39:26.903Z,99.90
2023-05-10T10:41:57.685Z,1.00
2023-05-10T10:44:42.565Z,99.90
2023-05-10T10:47:27.723Z,18.10
2023-05-10T10:50:06.615Z,1.00
2023-05-10T10:52:35.572Z,1.00
2023-05-10T10:55:06.182Z,99.90
2023-05-10T10:57:44.486Z,99.90
2023-05-10T11:00:24.518Z,18.10
2023-05-10T11:02:53.939Z,99.90
2023-05-10T11:05:43.294Z,99.90
2023-05-10T11:08:17.089Z,99.90
2023-05-10T11:10:56.058Z,99.90
2023-05-10T11:13:32.599Z,1.00
2023-05-10T11:16:01.118Z,1.00
2023-05-10T11:18:30.731Z,2.10
2023-05-10T11:21:00.723Z,99.90
2023-05-10T11:23:32.858Z,99.90
2023-05-10T11:26:02.062Z,1.00
2023-05-10T11:28:31.371Z,99.90
2023-05-10T11:30:59.639Z,93.70
2023-05-10T11:33:27.589Z,1.00
2023-05-10T11:35:55.439Z,1.00
2023-05-10T11:38:23.294Z,1.00
2023-05-10T11:40:54.904Z,1.00
2023-05-10T11:43:29.125Z,1.00
2023-05-10T11:45:58.535Z,1.00
2023-05-10T11:48:26.439Z,1.00
2023-05-10T11:50:57.952Z,1.00
2023-05-10T11:53:27.757Z,1.00
2023-05-10T11:55:55.645Z,1.00
2023-05-10T11:58:24.269Z,1.00
2023-05-10T12:00:52.438Z,1.00
2023-05-10T12:03:21.829Z,1.00
2023-05-10T12:05:49.846Z,1.00
2023-05-10T12:08:21.794Z,1.00
2023-05-10T12:10:50.414Z,1.00
2023-05-10T12:13:19.672Z,1.00
2023-05-10T12:15:47.599Z,1.00
2023-05-10T12:18:16.384Z,1.00
2023-05-10T12:20:45.805Z,1.00
2023-05-10T12:23:16.098Z,1.00
2023-05-10T12:25:44.222Z,1.00
2023-05-10T12:28:12.091Z,1.00
2023-05-10T12:30:40.840Z,1.00
2023-05-10T12:33:13.556Z,1.00
2023-05-10T12:35:51.303Z,1.00
2023-05-10T12:38:29.717Z,1.00
2023-05-10T12:40:57.913Z,1.00
2023-05-10T12:43:25.893Z,1.00
2023-05-10T12:45:53.841Z,1.00
2023-05-10T12:48:21.795Z,1.00
2023-05-10T12:50:51.247Z,1.00
2023-05-10T12:53:19.314Z,1.00
2023-05-10T12:55:47.158Z,1.00
2023-05-10T12:58:31.489Z,1.00
2023-05-10T13:01:02.974Z,1.00
2023-05-10T13:03:31.406Z,1.00
2023-05-10T13:06:00.658Z,1.00
2023-05-10T13:08:30.655Z,1.00
2023-05-10T13:10:58.571Z,1.00
2023-05-10T13:13:27.132Z,1.00
2023-05-10T13:15:55.031Z,1.00
2023-05-10T13:18:22.940Z,1.00
2023-05-10T13:20:51.591Z,1.00
2023-05-10T13:23:21.023Z,1.00
2023-05-10T13:25:48.879Z,1.00
2023-05-10T13:28:16.780Z,1.00
2023-05-10T13:30:44.603Z,1.00
2023-05-10T13:33:12.499Z,1.00
2023-05-10T13:35:40.455Z,1.00
2023-05-10T13:38:08.992Z,1.00
2023-05-10T13:40:38.279Z,1.00
2023-05-10T13:43:06.285Z,1.00
2023-05-10T13:45:34.174Z,1.00
2023-05-10T13:48:02.087Z,1.00
2023-05-10T13:50:29.966Z,1.00
2023-05-10T13:52:57.840Z,1.00
2023-05-10T13:55:25.817Z,1.00
2023-05-10T13:57:55.018Z,1.00
2023-05-10T14:00:22.974Z,99.90
2023-05-10T14:02:51.437Z,1.00
2023-05-10T14:05:23.847Z,1.00
2023-05-10T14:07:53.626Z,1.00
2023-05-10T14:10:21.501Z,1.00
2023-05-10T14:12:49.347Z,1.00
2023-05-10T14:15:19.160Z,25.60
2023-05-10T14:17:47.206Z,1.00
2023-05-10T14:20:15.111Z,1.00
2023-05-10T14:22:42.952Z,1.00
2023-05-10T14:25:11.390Z,1.00
2023-05-10T14:27:39.320Z,1.00
2023-05-10T14:30:08.571Z,1.00
2023-05-10T14:32:38.661Z,1.00
2023-05-10T14:35:09.003Z,1.00
2023-05-10T14:37:38.666Z,1.00
2023-05-10T14:40:08.160Z,1.00
2023-05-10T14:42:36.069Z,1.00
2023-05-10T14:45:04.223Z,1.00
2023-05-10T14:47:32.196Z,1.00
2023-05-10T14:50:01.448Z,1.00
2023-05-10T14:52:29.463Z,1.00
2023-05-10T14:54:58.053Z,1.00
2023-05-10T14:57:25.892Z,1.00
2023-05-10T14:59:53.785Z,1.00
2023-05-10T15:02:22.420Z,1.00
2023-05-10T15:04:50.858Z,1.00
2023-05-10T15:07:22.792Z,1.00
2023-05-10T15:09:50.887Z,1.00
2023-05-10T15:12:18.721Z,1.00
2023-05-10T15:14:46.607Z,1.00
2023-05-10T15:17:14.577Z,1.00
2023-05-10T15:19:42.419Z,1.00
2023-05-10T15:22:10.335Z,1.00
2023-05-10T15:24:39.619Z,1.00
2023-05-10T15:27:07.492Z,1.00
2023-05-10T15:29:36.567Z,1.00
2023-05-10T15:32:04.723Z,1.00
2023-05-10T15:34:34.886Z,1.00
2023-05-10T15:37:03.767Z,1.00
2023-05-10T15:39:31.572Z,1.00
2023-05-10T15:42:02.221Z,1.00
2023-05-10T15:44:30.061Z,1.00
2023-05-10T15:46:58.092Z,1.00
2023-05-10T15:49:26.645Z,1.00
2023-05-10T15:51:54.526Z,1.00
2023-05-10T15:54:22.478Z,1.00
2023-05-10T15:56:50.321Z,1.00
2023-05-10T15:59:19.512Z,1.00
2023-05-10T16:01:47.536Z,1.00
2023-05-10T16:04:15.373Z,1.00
2023-05-10T16:06:43.181Z,1.00
2023-05-10T16:09:11.473Z,1.00
2023-05-10T16:11:39.389Z,1.00
2023-05-10T16:14:07.514Z,1.00
2023-05-10T16:16:36.876Z,1.00
2023-05-10T16:19:05.123Z,1.00
2023-05-10T16:21:33.420Z,1.00
2023-05-10T16:24:01.695Z,1.00
2023-05-10T16:26:29.600Z,1.00
2023-05-10T16:28:57.460Z,1.00
2023-05-10T16:31:28.306Z,1.00
2023-05-10T16:33:57.590Z,1.00
2023-05-10T16:36:25.508Z,1.00
2023-05-10T16:38:53.405Z,1.00
2023-05-10T16:41:21.248Z,1.00
2023-05-10T16:43:49.253Z,1.00
2023-05-10T16:46:17.314Z,1.00
2023-05-10T16:48:45.280Z,1.00
2023-05-10T16:51:15.464Z,1.00
2023-05-10T16:53:43.350Z,1.00
2023-05-10T16:56:11.491Z,1.00
2023-05-10T16:58:39.317Z,99.90
2023-05-10T17:01:07.286Z,1.00
2023-05-10T17:03:35.583Z,1.00
2023-05-10T17:06:03.900Z,99.90
2023-05-10T17:08:33.340Z,99.90
2023-05-10T17:11:03.790Z,1.00
2023-05-10T17:13:32.775Z,1.00
2023-05-10T17:16:03.500Z,1.00
2023-05-10T17:18:31.702Z,99.90
2023-05-10T17:20:59.645Z,1.00
2023-05-10T17:23:27.884Z,1.00
2023-05-10T17:25:58.545Z,99.90
2023-05-10T17:28:27.418Z,99.90
2023-05-10T17:30:58.544Z,99.90
2023-05-10T17:33:26.470Z,99.90
2023-05-10T17:35:54.356Z,1.00
2023-05-10T17:38:22.202Z,1.00
2023-05-10T17:40:50.013Z,1.00
2023-05-10T17:43:19.278Z,1.00
2023-05-10T17:45:49.310Z,1.00
2023-05-10T17:48:17.214Z,1.00
2023-05-10T17:50:45.085Z,1.00
2023-05-10T17:53:12.985Z,1.00
2023-05-10T17:55:41.883Z,1.00
2023-05-10T17:58:11.529Z,1.00
2023-05-10T18:00:41.201Z,1.00
2023-05-10T18:03:09.215Z,1.00
2023-05-10T18:05:38.054Z,1.00
2023-05-10T18:08:07.187Z,1.00
2023-05-10T18:10:35.037Z,1.00
2023-05-10T18:13:06.282Z,1.00
2023-05-10T18:15:36.125Z,1.00
2023-05-10T18:18:06.020Z,1.00
2023-05-10T18:20:34.113Z,91.90
2023-05-10T18:23:02.476Z,99.90
2023-05-10T18:25:30.487Z,99.90
2023-05-10T18:27:58.445Z,99.90
2023-05-10T18:30:26.452Z,99.90
2023-05-10T18:32:54.992Z,99.90
2023-05-10T18:35:24.305Z,99.90
2023-05-10T18:37:52.541Z,99.90
2023-05-10T18:40:20.900Z,99.90
2023-05-10T18:42:50.005Z,99.90
2023-05-10T18:45:18.275Z,99.90
2023-05-10T18:47:46.379Z,99.90
2023-05-10T18:50:14.250Z,99.90
2023-05-10T18:52:43.565Z,99.90
2023-05-10T18:55:11.824Z,99.90
2023-05-10T18:57:41.586Z,99.90
2023-05-10T19:00:11.279Z,99.90
2023-05-10T19:02:39.237Z,99.90
2023-05-10T19:05:08.118Z,99.90
2023-05-10T19:07:35.940Z,99.90
2023-05-10T19:10:05.686Z,99.90
2023-05-10T19:12:33.793Z,99.90
2023-05-10T19:15:01.651Z,99.90
2023-05-10T19:17:31.842Z,99.90
2023-05-10T19:20:00.031Z,99.90
2023-05-10T19:22:44.926Z,99.90
2023-05-10T19:25:19.299Z,99.90
2023-05-10T19:27:47.565Z,99.90
2023-05-10T19:30:15.652Z,99.90
2023-05-10T19:32:44.393Z,99.90
2023-05-10T19:35:13.200Z,99.90
2023-05-10T19:37:45.839Z,99.90
2023-05-10T19:40:15.552Z,99.90
2023-05-10T19:42:44.795Z,99.90
2023-05-10T19:45:15.525Z,99.90
2023-05-10T19:47:43.764Z,99.90
2023-05-10T19:50:12.807Z,99.90
2023-05-10T19:52:41.157Z,99.90
2023-05-10T19:55:09.721Z,99.90
2023-05-10T19:57:37.636Z,99.90
2023-05-10T20:00:08.319Z,99.90
2023-05-10T20:02:36.188Z,99.90
2023-05-10T20:05:04.020Z,99.90
2023-05-10T20:07:32.014Z,99.90
2023-05-10T20:09:59.956Z,99.90
2023-05-10T20:12:28.194Z,99.90
2023-05-10T20:14:56.094Z,99.90
2023-05-10T20:17:25.310Z,99.90
2023-05-10T20:19:53.175Z,99.90
2023-05-10T20:22:21.032Z,99.90
2023-05-10T20:24:48.838Z,99.90
2023-05-10T20:27:16.952Z,99.90
2023-05-10T20:29:44.830Z,99.90
2023-05-10T20:32:12.746Z,99.90
2023-05-10T20:34:41.979Z,99.90
2023-05-10T20:37:09.869Z,99.90
2023-05-10T20:39:37.710Z,99.90
2023-05-10T20:42:05.880Z,99.90
2023-05-10T20:44:33.723Z,99.90
2023-05-10T20:47:01.715Z,99.90
2023-05-10T20:49:29.677Z,99.90
2023-05-10T20:51:58.875Z,99.90
2023-05-10T20:54:27.139Z,99.90
2023-05-10T20:56:54.973Z,99.90
2023-05-10T20:59:22.836Z,99.90
2023-05-10T21:01:50.682Z,99.90
2023-05-10T21:04:18.573Z,99.90
2023-05-10T21:06:46.763Z,99.90
2023-05-10T21:09:16.948Z,99.90
2023-05-10T21:11:44.834Z,99.90
2023-05-10T21:14:12.692Z,99.90
2023-05-10T21:16:40.655Z,99.90
2023-05-10T21:19:08.708Z,99.90
2023-05-10T21:21:36.659Z,99.90
2023-05-10T21:24:05.007Z,99.90
2023-05-10T21:26:34.185Z,99.90
2023-05-10T21:29:02.512Z,99.90
2023-05-10T21:31:31.147Z,99.90
2023-05-10T21:33:59.155Z,99.90
2023-05-10T21:36:27.012Z,99.90
2023-05-10T21:38:54.818Z,99.90
2023-05-10T21:41:22.759Z,99.90
2023-05-10T21:43:51.962Z,99.90
2023-05-10T21:46:19.871Z,99.90
2023-05-10T21:48:47.886Z,99.90
2023-05-10T21:51:15.886Z,99.90
2023-05-10T21:53:43.713Z,99.90
2023-05-10T21:56:11.625Z,99.90
2023-05-10T21:58:39.507Z,99.90
2023-05-10T22:01:08.789Z,99.90
2023-05-10T22:03:36.744Z,99.90
2023-05-10T22:06:05.085Z,99.90
2023-05-10T22:08:32.973Z,99.90
2023-05-10T22:11:00.882Z,99.90
2023-05-10T22:13:28.692Z,99.90
2023-05-10T22:15:56.517Z,99.90
2023-05-10T22:18:25.764Z,99.90
2023-05-10T22:20:53.677Z,99.90
2023-05-10T22:23:21.531Z,99.90
2023-05-10T22:25:49.371Z,99.90
2023-05-10T22:28:17.214Z,99.90
2023-05-10T22:30:45.168Z,99.90
2023-05-10T22:33:13.049Z,99.90
2023-05-10T22:35:42.266Z,99.90
2023-05-10T22:38:10.078Z,99.90
2023-05-10T22:40:37.922Z,99.90
2023-05-10T22:43:05.792Z,99.90
2023-05-10T22:45:33.635Z,99.90
2023-05-10T22:48:01.600Z,99.90
2023-05-10T22:50:31.029Z,99.90
2023-05-10T22:53:00.198Z,99.90
2023-05-10T22:55:28.144Z,99.90
2023-05-10T22:57:56.740Z,99.90
2023-05-10T23:00:24.790Z,99.90
2023-05-10T23:02:52.891Z,99.90
2023-05-10T23:05:20.785Z,99.90
2023-05-10T23:07:53.512Z,99.90
2023-05-10T23:10:22.788Z,99.90
2023-05-10T23:12:50.623Z,99.90
2023-05-10T23:15:18.458Z,99.90
2023-05-10T23:17:46.445Z,99.90
2023-05-10T23:20:14.581Z,99.90
2023-05-10T23:22:42.510Z,99.90
2023-05-10T23:25:11.718Z,99.90
2023-05-10T23:27:40.990Z,99.90
2023-05-10T23:30:10.090Z,99.90
2023-05-10T23:32:38.065Z,99.90
2023-05-10T23:35:06.734Z,99.90
2023-05-10T23:37:34.579Z,99.90
2023-05-10T23:40:03.025Z,99.90
2023-05-10T23:42:30.876Z,99.90
2023-05-10T23:45:00.552Z,99.90
2023-05-10T23:47:28.398Z,99.90
2023-05-10T23:49:56.324Z,99.90
2023-05-10T23:52:25.093Z,99.90
2023-05-10T23:54:53.123Z,99.90
2023-05-10T23:57:21.439Z,99.90
2023-05-10T23:59:49.395Z,99.90
